This is the latest recevied weather packets stored in our database for station/object N0THY. If no packets are shown the sender has not sent any weather packets the latest 10 day(s).
| Time | Temp. | Humidity | Pressure | Rain* | Wind** | Luminosity | Snow |
|---|---|---|---|---|---|---|---|
| 1777749386 | 20.56° C | 15% | 1019.7 hPa | 0 mm | - | - | - |
| 1777748483 | 20.56° C | 17% | 1019.9 hPa | 0 mm | - | - | - |
| 1777747580 | 20.56° C | 16% | 1020.1 hPa | 0 mm | - | - | - |
| 1777746677 | 20° C | 18% | 1020.3 hPa | 0 mm | - | - | - |
| 1777745774 | 20.56° C | 16% | 1020.5 hPa | 0 mm | - | - | - |
| 1777744871 | 20.56° C | 20% | 1020.6 hPa | 0 mm | - | - | - |
| 1777743968 | 19.44° C | 22% | 1020.8 hPa | 0 mm | - | - | - |
| 1777743065 | 18.33° C | 24% | 1021.1 hPa | 0 mm | - | - | - |
| 1777742162 | 17.78° C | 25% | 1021.2 hPa | 0 mm | - | - | - |
| 1777741259 | 17.22° C | 27% | 1021.5 hPa | 0 mm | - | - | - |
| 1777740356 | 16.67° C | 29% | 1021.7 hPa | 0 mm | - | - | - |
| 1777739453 | 16.67° C | 30% | 1021.8 hPa | 0 mm | - | - | - |
| 1777737647 | 14.44° C | 34% | 1022.1 hPa | 0 mm | - | - | - |
| 1777736744 | 14.44° C | 36% | 1022.2 hPa | 0 mm | - | - | - |
| 1777735842 | 13.33° C | 37% | 1022.4 hPa | 0 mm | - | - | - |
| 1777734939 | 12.78° C | 40% | 1022.5 hPa | 0 mm | - | - | - |
| 1777734036 | 11.67° C | 43% | 1022.7 hPa | 0 mm | - | - | - |
| 1777733133 | 10.56° C | 44% | 1022.7 hPa | 0 mm | - | - | - |
| 1777732230 | 10° C | 45% | 1022.7 hPa | 0 mm | - | - | - |
| 1777731327 | 8.89° C | 49% | 1022.8 hPa | 0 mm | - | - | - |
| 1777730424 | 7.78° C | 54% | 1023 hPa | 0 mm | - | - | - |
| 1777729521 | 6.67° C | 56% | 1022.9 hPa | 0 mm | - | - | - |
| 1777728618 | 5° C | 59% | 1023 hPa | 0 mm | - | - | - |
| 1777727715 | 3.33° C | 64% | 1022.9 hPa | 0 mm | - | - | - |
| 1777726812 | 1.11° C | 67% | 1022.8 hPa | 0 mm | - | - | - |
* Rain since midnight (hover to see other rain measurements)
** Current wind speed in m/s (hover to see current wind gust speed)